Time;durP1;ratioP1;P1;durP2;ratioP2;P2;SDS_P1;SDS_P2;PMS_P1;PMS_P2;Temp;Humidity;BMP_temperature;BMP_pressure;BME280_temperature;BME280_humidity;BME280_pressure;Samples;Min_cycle;Max_cycle;Signal;HPM_P1;HPM_P2
2023/12/15 00:01:37;;;;;;;16.17;10.18;;;;;;;5.76;100.00;102722.81;5172495;27;20080;-77
2023/12/15 00:04:04;;;;;;;16.75;10.00;;;;;;;5.75;100.00;102721.28;5162251;27;20046;-78
2023/12/15 00:06:31;;;;;;;13.32;9.05;;;;;;;5.75;100.00;102723.91;5181669;27;20047;-78
2023/12/15 00:08:57;;;;;;;15.60;11.05;;;;;;;5.76;100.00;102722.81;5143610;27;20058;-78
2023/12/15 00:11:24;;;;;;;18.23;11.65;;;;;;;5.77;100.00;102732.25;5163276;27;20125;-78
2023/12/15 00:13:51;;;;;;;18.75;11.52;;;;;;;5.76;100.00;102726.22;5163126;27;20137;-78
2023/12/15 00:16:18;;;;;;;18.95;11.98;;;;;;;5.77;100.00;102737.53;5182812;27;20126;-78
2023/12/15 00:18:44;;;;;;;23.65;12.77;;;;;;;5.77;100.00;102743.59;5185618;27;20117;-78
2023/12/15 00:21:11;;;;;;;21.48;13.07;;;;;;;5.78;100.00;102747.75;5167942;27;20826;-78
2023/12/15 00:23:37;;;;;;;18.52;13.05;;;;;;;5.78;100.00;102753.03;5191966;27;20035;-78
2023/12/15 00:26:04;;;;;;;29.38;13.35;;;;;;;5.77;100.00;102751.50;5160988;27;20095;-78
2023/12/15 00:28:32;;;;;;;23.42;13.73;;;;;;;5.79;100.00;102749.28;5178455;27;20065;-78
2023/12/15 00:30:58;;;;;;;23.00;13.85;;;;;;;5.79;100.00;102748.50;5177671;27;20035;-78
2023/12/15 00:33:25;;;;;;;23.95;14.20;;;;;;;5.79;100.00;102753.81;5166259;27;20490;-78
2023/12/15 00:35:52;;;;;;;30.38;15.55;;;;;;;5.80;100.00;102750.81;5165072;27;20058;-78
2023/12/15 00:38:18;;;;;;;23.35;14.57;;;;;;;5.81;100.00;102754.22;5167109;27;20042;-78
2023/12/15 00:40:45;;;;;;;24.52;14.65;;;;;;;5.79;100.00;102748.50;5166881;27;20038;-78
2023/12/15 00:43:14;;;;;;;26.77;14.38;;;;;;;5.81;100.00;102756.84;5148835;27;20085;-78
2023/12/15 00:45:42;;;;;;;27.45;15.35;;;;;;;5.80;100.00;102755.31;5166292;27;20035;-78
2023/12/15 00:48:08;;;;;;;32.35;16.15;;;;;;;5.84;100.00;102759.53;5166059;27;20053;-78
2023/12/15 00:50:35;;;;;;;30.00;15.85;;;;;;;5.84;100.00;102759.53;5185221;27;20503;-78
2023/12/15 00:53:02;;;;;;;25.45;14.43;;;;;;;5.83;100.00;102763.31;5166433;27;20045;-78
2023/12/15 00:55:29;;;;;;;28.38;16.35;;;;;;;5.84;100.00;102764.06;5165685;27;20582;-78
2023/12/15 00:57:55;;;;;;;26.77;15.88;;;;;;;5.85;100.00;102765.59;5149262;27;20845;-78
2023/12/15 01:00:22;;;;;;;31.67;17.02;;;;;;;5.85;100.00;102770.88;5184743;27;20054;-78
2023/12/15 01:02:48;;;;;;;32.00;16.10;;;;;;;5.85;100.00;102771.66;5166374;27;20047;-78
2023/12/15 01:05:15;;;;;;;29.05;16.60;;;;;;;5.85;100.00;102781.44;5148659;27;20059;-78
2023/12/15 01:07:42;;;;;;;29.80;17.08;;;;;;;5.85;100.00;102782.22;5166104;27;20047;-78
2023/12/15 01:10:10;;;;;;;29.48;17.20;;;;;;;5.86;100.00;102789.03;5165102;27;20137;-78
2023/12/15 01:12:37;;;;;;;30.50;16.95;;;;;;;5.86;100.00;102796.19;5164953;27;20043;-78
2023/12/15 01:15:04;;;;;;;25.75;16.58;;;;;;;5.88;100.00;102796.59;5184760;27;20054;-78
2023/12/15 01:17:31;;;;;;;23.67;16.75;;;;;;;5.88;100.00;102794.72;5165412;27;20054;-78
2023/12/15 01:19:57;;;;;;;34.05;17.77;;;;;;;5.89;100.00;102798.91;5164615;27;20047;-78
2023/12/15 01:22:24;;;;;;;28.42;17.02;;;;;;;5.91;100.00;102801.22;5165086;27;20129;-78
2023/12/15 01:24:50;;;;;;;27.85;16.70;;;;;;;5.92;100.00;102797.44;5165879;27;20486;-78
2023/12/15 01:27:17;;;;;;;32.00;17.05;;;;;;;5.91;100.00;102793.28;5183556;27;20054;-78
2023/12/15 01:29:43;;;;;;;35.78;18.90;;;;;;;5.92;100.00;102800.09;5148219;27;20815;-78
2023/12/15 01:32:10;;;;;;;31.30;18.42;;;;;;;5.92;100.00;102794.81;5147585;27;20047;-78
2023/12/15 01:34:37;;;;;;;27.02;17.38;;;;;;;5.93;100.00;102794.44;5184141;27;20038;-78
2023/12/15 01:37:03;;;;;;;38.33;18.70;;;;;;;5.92;100.00;102798.22;5184556;27;20102;-78
2023/12/15 01:39:30;;;;;;;34.85;18.52;;;;;;;5.92;100.00;102798.22;5164830;27;20091;-78
2023/12/15 01:41:56;;;;;;;31.35;17.20;;;;;;;5.91;100.00;102794.03;5185652;27;20117;-78
2023/12/15 01:44:23;;;;;;;32.90;18.05;;;;;;;5.93;100.00;102798.97;5183637;27;20058;-78
2023/12/15 01:46:49;;;;;;;29.13;17.83;;;;;;;5.95;100.00;102792.22;5181897;27;20039;-78
2023/12/15 01:49:16;;;;;;;32.10;18.33;;;;;;;5.96;100.00;102803.53;5164463;27;20043;-77
2023/12/15 01:51:43;;;;;;;34.53;19.25;;;;;;;5.95;100.00;102800.13;5182015;27;20050;-78
2023/12/15 01:54:10;;;;;;;37.55;18.67;;;;;;;5.94;100.00;102814.47;5183080;27;20039;-78
2023/12/15 01:56:36;;;;;;;36.95;19.63;;;;;;;5.95;100.00;102815.25;5183385;27;20497;-78
2023/12/15 01:59:03;;;;;;;33.53;19.52;;;;;;;5.94;100.00;102817.13;5182739;27;20046;-78
2023/12/15 02:01:30;;;;;;;36.75;19.40;;;;;;;5.96;100.00;102822.06;5182400;27;20127;-78
2023/12/15 02:03:56;;;;;;;39.63;19.52;;;;;;;5.96;100.00;102835.28;5183110;27;20108;-78
2023/12/15 02:06:23;;;;;;;35.63;19.23;;;;;;;5.95;100.00;102834.50;5180886;27;20092;-78
2023/12/15 02:08:50;;;;;;;43.10;20.08;;;;;;;5.96;100.00;102837.91;5164160;27;20046;-78
2023/12/15 02:11:16;;;;;;;33.10;19.13;;;;;;;5.97;100.00;102844.72;5163651;27;20039;-78
2023/12/15 02:13:43;;;;;;;37.28;20.13;;;;;;;5.97;100.00;102850.78;5182506;27;20104;-78
2023/12/15 02:16:09;;;;;;;36.00;19.63;;;;;;;5.97;100.00;102852.66;5184216;27;20047;-78
2023/12/15 02:18:36;;;;;;;44.47;19.05;;;;;;;5.98;100.00;102854.19;5182597;27;20447;-78
2023/12/15 02:21:03;;;;;;;40.38;19.55;;;;;;;5.98;100.00;102859.47;5164171;27;20073;-78
2023/12/15 02:23:29;;;;;;;44.33;19.17;;;;;;;5.99;100.00;102859.13;5184811;27;20046;-78
2023/12/15 02:25:56;;;;;;;36.08;19.65;;;;;;;5.98;100.00;102865.53;5179566;27;20035;-78
2023/12/15 02:28:22;;;;;;;35.38;19.63;;;;;;;6.00;100.00;102867.78;5147229;27;20043;-78
2023/12/15 02:30:49;;;;;;;37.58;19.58;;;;;;;6.01;100.00;102877.25;5183998;27;20038;-78
2023/12/15 02:33:15;;;;;;;41.30;20.00;;;;;;;6.00;100.00;102881.00;5184870;27;20121;-78
2023/12/15 02:35:42;;;;;;;39.25;20.45;;;;;;;6.01;100.00;102869.31;5184063;27;20069;-78
2023/12/15 02:38:09;;;;;;;39.40;19.77;;;;;;;6.01;100.00;102882.53;5183009;27;20113;-78
2023/12/15 02:40:36;;;;;;;34.13;18.92;;;;;;;6.02;100.00;102878.78;5164067;27;20107;-78
2023/12/15 02:43:02;;;;;;;42.35;19.60;;;;;;;6.02;100.00;102878.78;5164925;27;20102;-78
2023/12/15 02:45:29;;;;;;;50.03;19.52;;;;;;;6.03;100.00;102880.28;5146784;27;20130;-78
2023/12/15 02:47:56;;;;;;;45.42;19.33;;;;;;;6.03;100.00;102888.22;5164167;27;20035;-78
2023/12/15 02:50:22;;;;;;;42.80;20.08;;;;;;;6.03;100.00;102885.59;5147871;27;20061;-78
2023/12/15 02:52:49;;;;;;;40.20;18.85;;;;;;;6.06;100.00;102892.81;5164468;27;20178;-78
2023/12/15 02:55:16;;;;;;;33.35;17.77;;;;;;;6.05;100.00;102886.00;5183521;27;20031;-78
2023/12/15 02:57:42;;;;;;;35.35;18.67;;;;;;;6.06;100.00;102895.44;5162135;27;20085;-78
2023/12/15 03:00:09;;;;;;;37.75;19.45;;;;;;;6.06;100.00;102890.16;5181104;27;20051;-78
2023/12/15 03:02:36;;;;;;;36.83;18.55;;;;;;;6.07;100.00;102890.94;5162474;27;21342;-78
2023/12/15 03:05:03;;;;;;;35.85;18.83;;;;;;;6.07;100.00;102904.16;5162916;27;20116;-78
2023/12/15 03:07:29;;;;;;;39.40;18.58;;;;;;;6.08;100.00;102909.09;5176450;27;20049;-78
2023/12/15 03:09:56;;;;;;;38.38;18.48;;;;;;;6.07;100.00;102899.63;5181155;27;20038;-78
2023/12/15 03:12:22;;;;;;;36.50;18.35;;;;;;;6.08;100.00;102918.91;5142489;27;20043;-77
2023/12/15 03:14:49;;;;;;;42.63;18.85;;;;;;;6.07;100.00;102912.84;5161717;27;20038;-78
2023/12/15 03:17:16;;;;;;;39.42;18.98;;;;;;;6.09;100.00;102923.06;5180081;27;20043;-78
2023/12/15 03:19:43;;;;;;;39.75;18.60;;;;;;;6.08;100.00;102921.53;5161325;27;20050;-78
2023/12/15 03:22:10;;;;;;;38.38;19.40;;;;;;;6.07;100.00;102918.13;5160188;27;20082;-78
2023/12/15 03:24:36;;;;;;;38.78;19.42;;;;;;;6.07;100.00;102922.66;5179203;27;20050;-78
2023/12/15 03:27:03;;;;;;;40.50;19.17;;;;;;;6.08;100.00;102934.75;5156394;27;20091;-77
2023/12/15 03:29:29;;;;;;;39.65;19.38;;;;;;;6.08;100.00;102934.75;5178388;27;20034;-78
2023/12/15 03:31:56;;;;;;;37.22;19.90;;;;;;;6.08;100.00;102946.09;5179321;27;20471;-77
2023/12/15 03:34:23;;;;;;;37.20;18.70;;;;;;;6.07;100.00;102952.50;5179620;27;20095;-77
2023/12/15 03:36:50;;;;;;;42.67;19.27;;;;;;;6.08;100.00;102946.09;5179832;27;20046;-78
2023/12/15 03:39:16;;;;;;;42.25;19.70;;;;;;;6.10;100.00;102948.41;5178643;27;20077;-78
2023/12/15 03:41:43;;;;;;;40.88;18.85;;;;;;;6.10;100.00;102957.09;5159443;27;20051;-78
2023/12/15 03:44:09;;;;;;;40.40;19.77;;;;;;;6.14;100.00;102963.19;5180501;27;20043;-78
2023/12/15 03:46:36;;;;;;;39.67;19.05;;;;;;;6.14;100.00;102957.91;5178523;27;20047;-78
2023/12/15 03:49:02;;;;;;;36.22;19.13;;;;;;;6.16;100.00;102965.50;5179667;27;20070;-78
2023/12/15 03:51:29;;;;;;;37.35;19.50;;;;;;;6.16;100.00;102952.28;5159433;27;20107;-78
2023/12/15 03:53:56;;;;;;;39.05;19.65;;;;;;;6.17;100.00;102951.16;5178796;27;20043;-77
2023/12/15 03:56:24;;;;;;;40.25;19.60;;;;;;;6.17;100.00;102957.22;5178096;27;20566;-77
2023/12/15 03:58:52;;;;;;;36.58;18.45;;;;;;;6.16;100.00;102953.03;5181485;27;20121;-78
2023/12/15 04:01:18;;;;;;;34.83;18.23;;;;;;;6.17;100.00;102954.56;5187213;27;20047;-78
2023/12/15 04:03:45;;;;;;;38.35;19.70;;;;;;;6.17;100.00;102959.84;5187495;27;20505;-78
2023/12/15 04:06:12;;;;;;;34.67;18.75;;;;;;;6.18;100.00;102965.91;5190650;27;20058;-78
2023/12/15 04:08:44;;;;;;;38.38;20.15;;;;;;;6.18;100.00;102969.31;5173879;27;20042;-78
2023/12/15 04:11:11;;;;;;;35.10;19.88;;;;;;;6.18;100.00;102957.97;5190898;27;20121;-78
2023/12/15 04:13:37;;;;;;;42.63;19.10;;;;;;;6.19;100.00;102962.13;5197391;27;20080;-78
2023/12/15 04:16:05;;;;;;;35.70;18.45;;;;;;;6.19;100.00;102967.44;5200005;27;20326;-78
2023/12/15 04:18:32;;;;;;;36.10;19.58;;;;;;;6.19;100.00;102980.66;5160331;27;20051;-78
2023/12/15 04:21:02;;;;;;;39.70;19.00;;;;;;;6.18;100.00;102987.81;5190619;27;20153;-78
2023/12/15 04:23:29;;;;;;;36.38;19.17;;;;;;;6.20;100.00;102996.16;5186719;27;20062;-78
2023/12/15 04:25:58;;;;;;;37.30;19.13;;;;;;;6.20;100.00;102998.06;5167167;27;20768;-78
2023/12/15 04:28:27;;;;;;;35.75;19.35;;;;;;;6.20;100.00;102982.19;5166022;27;20133;-78
2023/12/15 04:30:54;;;;;;;40.78;19.75;;;;;;;6.20;100.00;102990.88;5157793;27;20046;-78
2023/12/15 04:33:20;;;;;;;38.13;18.88;;;;;;;6.23;100.00;103000.00;5186223;27;20111;-78
2023/12/15 04:35:47;;;;;;;35.72;19.02;;;;;;;6.22;100.00;102998.47;5165675;27;20168;-78
2023/12/15 04:38:14;;;;;;;40.90;19.70;;;;;;;6.22;100.00;103004.53;5184646;27;20451;-78
2023/12/15 04:40:42;;;;;;;30.27;17.77;;;;;;;6.23;100.00;103003.41;5166352;27;20046;-78
2023/12/15 04:43:09;;;;;;;30.40;18.75;;;;;;;6.23;100.00;103006.03;5165295;27;20078;-78
2023/12/15 04:45:36;;;;;;;29.65;17.40;;;;;;;6.23;100.00;102994.69;5165956;27;20068;-78
2023/12/15 04:48:03;;;;;;;33.10;18.55;;;;;;;6.24;100.00;103001.53;5167422;27;20051;-78
2023/12/15 04:50:29;;;;;;;36.13;18.27;;;;;;;6.24;100.00;102997.00;5183721;27;20122;-78
2023/12/15 04:52:57;;;;;;;28.45;17.80;;;;;;;6.25;100.00;102997.75;5166836;27;20069;-78
2023/12/15 04:55:23;;;;;;;30.90;17.38;;;;;;;6.24;100.00;102999.63;5165375;27;20084;-78
2023/12/15 04:57:50;;;;;;;43.78;17.55;;;;;;;6.24;100.00;103001.53;5165968;27;20051;-78
2023/12/15 05:00:17;;;;;;;29.05;15.88;;;;;;;6.24;100.00;103001.53;5165762;27;20061;-78
2023/12/15 05:02:44;;;;;;;32.35;16.45;;;;;;;6.24;100.00;103012.88;5185230;27;20046;-78
2023/12/15 05:05:10;;;;;;;37.53;16.75;;;;;;;6.23;100.00;103000.75;5184429;27;20070;-78
2023/12/15 05:07:37;;;;;;;31.63;16.83;;;;;;;6.23;100.00;103016.63;5165860;27;20082;-78
2023/12/15 05:10:04;;;;;;;30.00;16.52;;;;;;;6.24;100.00;103022.69;5185242;27;20050;-78
2023/12/15 05:12:35;;;;;;;30.98;15.70;;;;;;;6.24;100.00;103030.63;5183784;27;20054;-78
2023/12/15 05:15:03;;;;;;;25.83;15.95;;;;;;;6.24;100.00;103034.03;5165475;27;20050;-78
2023/12/15 05:17:30;;;;;;;30.25;16.13;;;;;;;6.24;100.00;103028.72;5183268;27;20047;-78
2023/12/15 05:19:57;;;;;;;27.35;15.20;;;;;;;6.24;100.00;103035.91;5147845;27;20103;-78
2023/12/15 05:22:24;;;;;;;24.95;14.20;;;;;;;6.24;100.00;103034.03;5163715;27;20526;-78
2023/12/15 05:24:51;;;;;;;23.30;14.45;;;;;;;6.25;100.00;103053.31;5166062;27;20043;-78
2023/12/15 05:27:18;;;;;;;25.05;14.32;;;;;;;6.25;100.00;103054.06;5165131;27;20505;-78
2023/12/15 05:29:46;;;;;;;26.60;14.38;;;;;;;6.26;100.00;103058.25;5164943;27;20477;-78
2023/12/15 05:32:14;;;;;;;25.38;14.18;;;;;;;6.27;100.00;103062.41;5166042;27;20045;-78
2023/12/15 05:34:42;;;;;;;28.83;14.00;;;;;;;6.29;100.00;103065.47;5145827;27;20066;-78
2023/12/15 05:37:09;;;;;;;24.27;13.82;;;;;;;6.29;100.00;103051.47;5165993;27;20125;-78
2023/12/15 05:39:35;;;;;;;21.55;13.02;;;;;;;6.28;100.00;103048.06;5182595;27;20489;-78
2023/12/15 05:42:02;;;;;;;26.67;13.00;;;;;;;6.29;100.00;103048.84;5183764;27;20050;-78
2023/12/15 05:44:29;;;;;;;19.15;13.15;;;;;;;6.29;100.00;103052.25;5164094;27;20047;-78
2023/12/15 05:46:55;;;;;;;20.92;12.05;;;;;;;6.29;100.00;103052.25;5184522;27;20038;-78
2023/12/15 05:49:22;;;;;;;27.88;12.50;;;;;;;6.29;100.00;103062.81;5164492;27;20031;-78
2023/12/15 05:51:49;;;;;;;24.23;12.93;;;;;;;6.30;100.00;103053.00;5185213;27;20046;-78
2023/12/15 05:54:15;;;;;;;24.45;13.02;;;;;;;6.30;100.00;103053.00;5164708;27;20551;-78
2023/12/15 05:56:42;;;;;;;18.63;12.40;;;;;;;6.29;100.00;103060.19;5183771;27;20043;-78
2023/12/15 05:59:09;;;;;;;21.95;11.98;;;;;;;6.29;100.00;103065.47;5164296;27;20092;-78
2023/12/15 06:01:36;;;;;;;22.95;12.52;;;;;;;6.30;100.00;103069.66;5184816;27;20929;-78
2023/12/15 06:04:03;;;;;;;26.35;12.65;;;;;;;6.31;100.00;103073.81;5185411;27;20053;-78
2023/12/15 06:06:29;;;;;;;20.90;12.27;;;;;;;6.31;100.00;103075.72;5163844;27;20081;-78
2023/12/15 06:08:56;;;;;;;28.83;12.45;;;;;;;6.30;100.00;103069.66;5184546;27;20047;-78
2023/12/15 06:11:24;;;;;;;26.73;12.43;;;;;;;6.33;100.00;103084.06;5147223;27;20047;-78
2023/12/15 06:13:51;;;;;;;25.08;11.80;;;;;;;6.33;100.00;103092.75;5163732;27;20471;-78
2023/12/15 06:16:19;;;;;;;24.83;10.73;;;;;;;6.34;100.00;103085.59;5166389;27;20088;-78
2023/12/15 06:18:47;;;;;;;21.42;11.27;;;;;;;6.32;100.00;103088.56;5165368;27;20559;-78
2023/12/15 06:21:25;;;;;;;20.88;11.90;;;;;;;6.35;100.00;103095.06;5164195;27;20058;-78
2023/12/15 06:23:53;;;;;;;23.55;11.57;;;;;;;6.35;100.00;103098.47;5164031;27;20522;-78
2023/12/15 06:26:25;;;;;;;21.20;11.43;;;;;;;6.35;100.00;103095.06;5146863;27;20047;-78
2023/12/15 06:28:55;;;;;;;19.85;10.43;;;;;;;6.35;100.00;103098.47;5164935;27;20075;-78
2023/12/15 06:31:25;;;;;;;22.55;10.75;;;;;;;6.36;100.00;103096.56;5184394;27;20066;-78
2023/12/15 06:33:52;;;;;;;25.98;11.55;;;;;;;6.37;100.00;103098.09;5181721;27;20042;-78
2023/12/15 06:36:19;;;;;;;19.90;10.77;;;;;;;6.37;100.00;103111.34;5162975;27;20047;-78
2023/12/15 06:38:50;;;;;;;19.23;10.73;;;;;;;6.37;100.00;103107.94;5164539;27;20043;-78
2023/12/15 06:41:17;;;;;;;20.10;10.52;;;;;;;6.38;100.00;103106.81;5164989;27;20521;-78
2023/12/15 06:43:45;;;;;;;23.30;11.60;;;;;;;6.37;100.00;103110.56;5182859;27;20111;-78
2023/12/15 06:46:12;;;;;;;16.98;11.07;;;;;;;6.38;100.00;103117.38;5159069;27;20138;-77
2023/12/15 06:48:39;;;;;;;20.67;9.88;;;;;;;6.38;100.00;103130.63;5177794;27;20043;-77
2023/12/15 06:51:06;;;;;;;17.48;10.20;;;;;;;6.38;100.00;103128.75;5178930;27;20096;-77
2023/12/15 06:53:33;;;;;;;17.00;10.05;;;;;;;6.39;100.00;103130.28;5177695;27;20042;-77
2023/12/15 06:56:00;;;;;;;17.75;10.05;;;;;;;6.40;100.00;103136.31;5178304;27;20039;-77
2023/12/15 06:58:27;;;;;;;27.13;10.35;;;;;;;6.40;100.00;103138.97;5137369;27;20053;-77
2023/12/15 07:00:53;;;;;;;20.42;8.82;;;;;;;6.41;100.00;103140.47;5158868;27;20050;-77
2023/12/15 07:03:20;;;;;;;22.90;9.88;;;;;;;6.41;100.00;103143.13;5160948;27;20895;-78
2023/12/15 07:05:47;;;;;;;17.58;9.18;;;;;;;6.41;100.00;103148.41;5181865;27;20474;-78
2023/12/15 07:08:14;;;;;;;25.15;9.77;;;;;;;6.41;100.00;103140.47;5180916;27;20465;-78
2023/12/15 07:10:41;;;;;;;22.60;9.13;;;;;;;6.41;100.00;103146.53;5182078;27;20807;-78
2023/12/15 07:13:08;;;;;;;19.52;9.88;;;;;;;6.42;100.00;103150.72;5145862;27;20050;-78
2023/12/15 07:15:35;;;;;;;17.92;9.30;;;;;;;6.43;100.00;103148.81;5182025;27;20034;-78
2023/12/15 07:18:02;;;;;;;16.55;9.65;;;;;;;6.44;100.00;103143.19;5160476;27;20051;-78
2023/12/15 07:20:28;;;;;;;16.95;9.98;;;;;;;6.45;100.00;103154.53;5159803;27;20042;-77
2023/12/15 07:22:55;;;;;;;20.42;9.70;;;;;;;6.45;100.00;103162.47;5141760;27;20095;-77
2023/12/15 07:25:24;;;;;;;19.38;10.60;;;;;;;6.46;100.00;103171.94;5158643;27;20039;-77
2023/12/15 07:27:51;;;;;;;18.25;9.50;;;;;;;6.46;100.00;103171.94;5176927;27;20091;-76
2023/12/15 07:30:18;;;;;;;22.20;9.25;;;;;;;6.46;100.00;103167.41;5156865;27;20069;-77
2023/12/15 07:32:44;;;;;;;24.45;9.85;;;;;;;6.47;100.00;103168.94;5156362;27;20043;-77
2023/12/15 07:35:11;;;;;;;17.70;9.13;;;;;;;6.48;100.00;103177.66;5175993;27;20053;-76
2023/12/15 07:37:55;;;;;;;17.48;8.80;;;;;;;6.48;100.00;103185.59;5156084;27;20505;-77
2023/12/15 07:40:22;;;;;;;15.68;9.18;;;;;;;6.49;100.00;103184.47;5175659;27;20088;-77
2023/12/15 07:42:49;;;;;;;18.92;9.15;;;;;;;6.49;100.00;103190.53;5175214;27;20047;-77
2023/12/15 07:45:15;;;;;;;16.25;8.55;;;;;;;6.48;100.00;103204.09;5157713;27;20497;-77
2023/12/15 07:47:42;;;;;;;22.67;9.13;;;;;;;6.50;100.00;103205.28;5160719;27;20087;-75
2023/12/15 07:50:09;;;;;;;20.92;9.40;;;;;;;6.51;100.00;103206.06;5180736;27;20125;-76
2023/12/15 07:52:36;;;;;;;17.77;8.85;;;;;;;6.52;100.00;103211.00;5161324;27;20047;-76
2023/12/15 07:55:02;;;;;;;18.50;9.85;;;;;;;6.52;100.00;103213.66;5163135;27;20485;-77
2023/12/15 07:57:29;;;;;;;18.05;9.23;;;;;;;6.53;100.00;103222.34;5166515;27;20042;-79
2023/12/15 07:59:55;;;;;;;23.17;9.15;;;;;;;6.54;100.00;103229.16;5170656;27;20043;-77
2023/12/15 08:02:22;;;;;;;14.65;8.90;;;;;;;6.56;100.00;103240.16;5191735;27;20043;-77
2023/12/15 08:04:49;;;;;;;21.00;8.98;;;;;;;6.57;100.00;103239.06;5195973;27;20038;-78
2023/12/15 08:07:15;;;;;;;14.68;9.23;;;;;;;6.58;100.00;103237.94;5174709;27;20125;-78
2023/12/15 08:09:42;;;;;;;19.50;8.95;;;;;;;6.58;100.00;103235.28;5146806;27;20077;-77
2023/12/15 08:12:08;;;;;;;16.98;9.07;;;;;;;6.58;100.00;103241.34;5148265;27;20552;-78
2023/12/15 08:14:35;;;;;;;18.33;8.95;;;;;;;6.59;100.00;103237.59;5165942;27;20050;-78
2023/12/15 08:17:02;;;;;;;20.30;8.85;;;;;;;6.60;100.00;103247.06;5187247;27;20047;-77
2023/12/15 08:19:31;;;;;;;19.05;8.82;;;;;;;6.62;100.00;103246.72;5162527;27;20472;-77
2023/12/15 08:21:59;;;;;;;24.70;9.55;;;;;;;6.63;100.00;103258.84;5161177;27;20062;-76
2023/12/15 08:24:26;;;;;;;19.45;8.75;;;;;;;6.64;100.00;103271.72;5179887;27;20045;-77
2023/12/15 08:26:54;;;;;;;17.80;8.52;;;;;;;6.66;100.00;103282.72;5183163;27;20048;-77
2023/12/15 08:29:21;;;;;;;17.48;8.70;;;;;;;6.68;100.00;103282.38;5147334;27;20078;-78
2023/12/15 08:31:49;;;;;;;17.40;8.75;;;;;;;6.69;100.00;103287.31;5164687;27;20043;-77
2023/12/15 08:34:15;;;;;;;21.20;8.68;;;;;;;6.73;100.00;103292.69;5181279;27;20047;-77
2023/12/15 08:36:43;;;;;;;18.30;8.05;;;;;;;6.75;100.00;103297.63;5183826;27;20039;-77
2023/12/15 08:39:10;;;;;;;21.25;8.60;;;;;;;6.76;100.00;103291.97;5161747;27;20050;-77
2023/12/15 08:41:42;;;;;;;21.25;8.32;;;;;;;6.80;100.00;103297.34;5177888;27;20046;-80
2023/12/15 08:44:09;;;;;;;15.02;8.25;;;;;;;6.81;100.00;103299.63;5162640;27;20497;-79
2023/12/15 08:46:49;;;;;;;20.58;8.88;;;;;;;6.83;100.00;103302.69;5178596;27;20114;-77
2023/12/15 08:49:16;;;;;;;16.23;7.78;;;;;;;6.85;100.00;103302.31;5183679;27;20130;-79
2023/12/15 08:51:43;;;;;;;19.23;8.75;;;;;;;6.88;100.00;103299.75;5179807;27;20089;-80
2023/12/15 08:54:09;;;;;;;19.58;7.82;;;;;;;6.90;100.00;103302.81;5190230;27;20058;-79
2023/12/15 08:56:37;;;;;;;16.95;7.88;;;;;;;6.91;100.00;103303.56;5187913;27;20049;-76
2023/12/15 08:59:04;;;;;;;17.63;8.02;;;;;;;6.94;100.00;103310.81;5160207;27;20501;-77
2023/12/15 09:01:33;;;;;;;16.58;7.93;;;;;;;6.94;100.00;103311.59;5177353;27;20038;-77
2023/12/15 09:03:59;;;;;;;21.52;8.35;;;;;;;6.96;100.00;103319.94;5159466;27;20489;-77
2023/12/15 09:06:26;;;;;;;26.27;8.48;;;;;;;6.96;100.00;103330.53;5177132;27;20167;-77
2023/12/15 09:08:58;;;;;;;17.75;7.75;;;;;;;6.98;100.00;103330.94;5177432;27;20039;-77
2023/12/15 09:11:25;;;;;;;19.33;7.78;;;;;;;7.01;100.00;103340.09;5158138;27;20043;-77
2023/12/15 09:13:52;;;;;;;20.38;7.63;;;;;;;7.03;100.00;103346.56;5158348;27;20061;-77
2023/12/15 09:16:18;;;;;;;20.63;7.85;;;;;;;7.07;100.00;103343.22;5158747;27;20481;-77
2023/12/15 09:18:45;;;;;;;15.50;8.13;;;;;;;7.09;100.00;103349.69;5158222;27;20055;-77
2023/12/15 09:21:11;;;;;;;18.00;7.63;;;;;;;7.12;100.00;103364.13;5159101;27;20043;-77
2023/12/15 09:23:38;;;;;;;18.85;7.57;;;;;;;7.14;100.00;103362.66;5140775;27;20054;-77
2023/12/15 09:26:04;;;;;;;17.02;7.32;;;;;;;7.16;100.00;103367.59;5177570;27;20047;-77
2023/12/15 09:28:31;;;;;;;20.25;6.72;;;;;;;7.20;100.00;103379.00;5156959;27;20053;-77
2023/12/15 09:30:58;;;;;;;16.80;7.60;;;;;;;7.25;100.00;103386.66;5142031;27;20138;-77
2023/12/15 09:33:25;;;;;;;16.77;7.43;;;;;;;7.28;100.00;103391.25;5158081;27;20035;-77
2023/12/15 09:35:53;;;;;;;17.67;7.05;;;;;;;7.32;100.00;103400.81;5177162;27;20045;-77
2023/12/15 09:38:20;;;;;;;20.70;7.50;;;;;;;7.36;100.00;103396.34;5154113;27;20049;-77
2023/12/15 09:40:47;;;;;;;21.33;6.72;;;;;;;7.41;100.00;103400.56;5140797;27;20047;-77
2023/12/15 09:43:14;;;;;;;21.02;6.93;;;;;;;7.45;100.00;103401.41;5177070;27;20997;-77
2023/12/15 09:45:41;;;;;;;18.50;6.50;;;;;;;7.51;100.00;103401.88;5176990;27;20122;-77
2023/12/15 09:48:10;;;;;;;14.43;6.63;;;;;;;7.54;100.00;103409.13;5145199;27;20047;-78
2023/12/15 09:50:40;;;;;;;23.83;7.18;;;;;;;7.56;100.00;103409.53;5182448;27;20071;-78
2023/12/15 09:53:07;;;;;;;11.82;6.22;;;;;;;7.57;100.00;103409.19;5163967;27;20042;-78
2023/12/15 09:55:33;;;;;;;10.23;5.85;;;;;;;7.60;100.00;103413.00;5159644;27;20046;-77
2023/12/15 09:58:00;;;;;;;24.05;7.25;;;;;;;7.64;100.00;103424.44;5158678;27;20039;-77
2023/12/15 10:00:28;;;;;;;15.55;6.50;;;;;;;7.65;100.00;103424.06;5163165;27;20095;-79
2023/12/15 10:02:54;;;;;;;13.00;5.45;;;;;;;7.69;100.00;103432.84;5158674;27;20099;-76
2023/12/15 10:05:23;;;;;;;20.65;6.63;;;;;;;7.76;100.00;103439.41;5153870;27;20043;-76
2023/12/15 10:07:49;;;;;;;21.92;5.95;;;;;;;7.80;100.00;103448.94;5177506;27;20042;-78
2023/12/15 10:10:18;;;;;;;10.15;6.07;;;;;;;7.84;100.00;103451.66;5181624;27;20113;-78
2023/12/15 10:12:44;;;;;;;20.83;5.65;;;;;;;7.88;100.00;103449.84;5164623;27;20057;-78
2023/12/15 10:15:11;;;;;;;14.80;5.82;;;;;;;7.90;100.00;103461.63;5163836;27;20777;-78
2023/12/15 10:17:39;;;;;;;15.82;5.47;;;;;;;7.93;100.00;103468.09;5148488;27;20076;-79
2023/12/15 10:20:09;;;;;;;19.10;6.18;;;;;;;7.95;100.00;103474.59;5167094;27;20538;-78
2023/12/15 10:22:38;;;;;;;17.25;5.57;;;;;;;7.97;100.00;103487.50;5163174;27;20041;-78
2023/12/15 10:25:19;;;;;;;14.13;5.70;;;;;;;7.99;100.00;103478.06;5166799;27;20513;-78
2023/12/15 10:27:47;;;;;;;17.23;5.90;;;;;;;8.01;100.00;103483.00;5161717;27;20133;-78
2023/12/15 10:30:15;;;;;;;17.77;6.50;;;;;;;8.04;100.00;103491.00;5180973;27;20123;-78
2023/12/15 10:32:43;;;;;;;15.23;5.68;;;;;;;8.07;100.00;103489.53;5180181;27;20138;-76
2023/12/15 10:35:10;;;;;;;17.25;6.15;;;;;;;8.12;100.00;103481.28;5163991;27;20138;-78
2023/12/15 10:37:37;;;;;;;16.48;5.63;;;;;;;8.18;100.00;103484.41;5182768;27;20042;-78
2023/12/15 10:40:05;;;;;;;13.07;5.70;;;;;;;8.22;100.00;103493.94;5182903;27;20038;-78
2023/12/15 10:42:33;;;;;;;17.23;5.22;;;;;;;8.25;100.00;103493.25;5182429;27;20054;-78
2023/12/15 10:45:07;;;;;;;12.85;5.20;;;;;;;8.29;100.00;103496.72;5183209;27;20784;-78
2023/12/15 10:47:34;;;;;;;17.08;5.38;;;;;;;8.32;100.00;103504.00;5162611;27;20043;-78
2023/12/15 10:50:02;;;;;;;12.57;5.28;;;;;;;8.35;100.00;103511.25;5190599;27;20841;-78
2023/12/15 10:52:32;;;;;;;13.43;4.72;;;;;;;8.41;100.00;103522.31;5179422;27;20064;-78
2023/12/15 10:55:03;;;;;;;12.48;5.03;;;;;;;8.43;100.00;103522.72;5184046;27;20090;-78
2023/12/15 10:57:32;;;;;;;25.87;5.30;;;;;;;8.44;100.00;103518.94;5179079;27;20038;-78
2023/12/15 11:00:02;;;;;;;17.67;5.55;;;;;;;8.47;100.00;103512.16;5161217;27;20039;-78
2023/12/15 11:02:31;;;;;;;12.23;5.30;;;;;;;8.49;100.00;103515.97;5173934;27;20934;-78
2023/12/15 11:04:59;;;;;;;17.20;4.72;;;;;;;8.52;100.00;103523.25;5163786;27;20034;-78
2023/12/15 11:07:28;;;;;;;17.10;4.97;;;;;;;8.56;100.00;103518.75;5182484;27;20761;-78
2023/12/15 11:09:56;;;;;;;13.60;4.50;;;;;;;8.57;100.00;103525.59;5182473;27;20122;-78
2023/12/15 11:12:30;;;;;;;18.10;4.50;;;;;;;8.60;100.00;103524.88;5162773;27;20061;-78